< < Back
Terminal Aerodrome Forecast


Current Version              Previous Versions:   1  2  3  4  5  6  7  8  9  

Terminal Aerodrome Forecast

246
FTUS44 KBMX 220500
TAFTCL
TAF
KTCL 220533Z 2206/2306 VRB03KT P6SM FEW100 SCT250
     FM221600 12007KT P6SM BKN035
     FM222000 11007KT P6SM BKN025
     FM230500 13008KT 5SM -RA BKN020=

Latest METAR

344
SAUS70 KWBC 230700 RRE
MTRTCL
METAR KTCL 230653Z AUTO 09005KT 8SM -RA BKN020 OVC035 15/12 A3001 RMK
AO2 RAB40 SLP159 P0000 T01500117


USA.gov is the U.S. government's official web portal to all federal, state and local government web resources and services.